Terminal Aerodrome Forecast
Issued by NWS

Home | Current Version | Previous Version | Text Only | Print | Product List | Glossary On
Versions: 1 2 3 4 5 6 7 8 9 10 11 12 13 14 15 16 17 18 19 20 21 22 23 24 25 26
000
FTUS41 KCAR 271537 AAG
TAFBHB
TAF AMD
KBHB 271537Z 2716/2812 10005KT 3/4SM BR OVC003
     FM271700 11005KT 3SM BR OVC005
     FM272200 13004KT 1/2SM -DZ FG OVC002=

USA.gov is the U.S. government's official web portal to all federal, state and local government web resources and services.